createdAt,value
2022-09-15T00:02:07.042Z,13.22
2022-09-15T00:04:35.677Z,13.26
2022-09-15T00:07:04.220Z,13.29
2022-09-15T00:09:32.805Z,13.26
2022-09-15T00:12:01.044Z,13.31
2022-09-15T00:14:29.744Z,13.33
2022-09-15T00:16:59.938Z,13.38
2022-09-15T00:19:28.673Z,13.42
2022-09-15T00:21:57.615Z,13.47
2022-09-15T00:24:26.127Z,13.52
2022-09-15T00:26:54.675Z,13.54
2022-09-15T00:35:26.732Z,13.52
2022-09-15T00:37:55.393Z,13.48
2022-09-15T00:40:24.679Z,13.43
2022-09-15T00:42:53.374Z,13.39
2022-09-15T00:45:21.517Z,13.42
2022-09-15T00:47:50.449Z,13.44
2022-09-15T00:50:20.462Z,13.47
2022-09-15T00:52:52.031Z,13.47
2022-09-15T00:55:23.273Z,13.41
2022-09-15T00:57:54.379Z,13.04
2022-09-15T01:00:23.967Z,12.88
2022-09-15T01:02:52.638Z,12.69
2022-09-15T01:05:22.438Z,12.32
2022-09-15T01:07:55.036Z,12.18
2022-09-15T01:10:27.145Z,12.05
2022-09-15T01:12:56.422Z,11.90
2022-09-15T01:15:26.778Z,11.72
2022-09-15T01:18:04.171Z,11.68
2022-09-15T01:20:47.933Z,11.65
2022-09-15T01:23:31.712Z,11.53
2022-09-15T01:26:17.479Z,11.56
2022-09-15T01:29:04.301Z,11.45
2022-09-15T01:31:36.831Z,11.49
2022-09-15T01:34:07.896Z,11.36
2022-09-15T01:39:27.256Z,11.29
2022-09-15T01:41:57.307Z,11.33
2022-09-15T01:44:27.694Z,11.32
2022-09-15T01:46:59.629Z,11.27
2022-09-15T01:49:30.326Z,11.29
2022-09-15T01:51:59.051Z,11.30
2022-09-15T01:54:31.553Z,11.30
2022-09-15T01:57:00.826Z,11.34
2022-09-15T01:59:30.726Z,11.34
2022-09-15T02:02:03.733Z,11.30
2022-09-15T02:04:36.876Z,11.27
2022-09-15T02:07:12.283Z,11.33
2022-09-15T02:09:48.910Z,11.40
2022-09-15T02:12:20.507Z,11.51
2022-09-15T02:14:54.429Z,11.56
2022-09-15T02:17:27.196Z,11.47
2022-09-15T02:19:58.019Z,11.39
2022-09-15T02:22:28.579Z,11.29
2022-09-15T02:24:59.999Z,11.37
2022-09-15T02:27:30.649Z,11.39
2022-09-15T02:30:01.827Z,11.45
2022-09-15T02:32:36.326Z,11.41
2022-09-15T02:35:08.114Z,11.44
2022-09-15T02:37:40.063Z,11.36
2022-09-15T02:40:09.383Z,11.44
2022-09-15T02:42:39.492Z,11.49
2022-09-15T02:45:08.780Z,11.50
2022-09-15T02:47:39.563Z,11.55
2022-09-15T02:50:09.363Z,11.60
2022-09-15T02:52:38.060Z,11.59
2022-09-15T02:55:06.719Z,11.57
2022-09-15T02:57:35.175Z,11.58
2022-09-15T03:00:17.012Z,11.58
2022-09-15T03:02:50.185Z,11.64
2022-09-15T03:05:19.371Z,11.64
2022-09-15T03:07:48.494Z,11.62
2022-09-15T03:10:17.219Z,11.47
2022-09-15T03:12:46.931Z,11.51
2022-09-15T03:15:16.498Z,11.55
2022-09-15T03:17:47.835Z,11.51
2022-09-15T03:29:00.253Z,11.43
2022-09-15T03:34:37.693Z,11.44
2022-09-15T03:37:08.798Z,11.39
2022-09-15T03:39:38.226Z,11.42
2022-09-15T03:42:07.808Z,11.47
2022-09-15T03:44:36.508Z,11.51
2022-09-15T03:47:05.376Z,11.53
2022-09-15T03:49:35.671Z,11.53
2022-09-15T03:52:03.940Z,11.37
2022-09-15T03:54:35.728Z,11.30
2022-09-15T03:57:04.562Z,11.30
2022-09-15T03:59:32.664Z,11.32
2022-09-15T04:02:01.272Z,11.34
2022-09-15T04:04:29.956Z,11.35
2022-09-15T04:06:58.685Z,11.38
2022-09-15T04:09:28.079Z,11.31
2022-09-15T04:11:57.933Z,11.31
2022-09-15T04:14:26.884Z,11.35
2022-09-15T04:16:57.615Z,11.37
2022-09-15T04:19:26.390Z,11.26
2022-09-15T04:21:55.306Z,11.16
2022-09-15T04:24:24.539Z,11.12
2022-09-15T04:29:54.455Z,11.13
2022-09-15T04:32:23.847Z,11.11
2022-09-15T04:34:54.999Z,11.08
2022-09-15T04:37:23.922Z,11.19
2022-09-15T04:39:52.861Z,11.15
2022-09-15T04:42:22.344Z,11.19
2022-09-15T04:44:50.941Z,11.25
2022-09-15T04:47:21.223Z,11.21
2022-09-15T04:49:58.319Z,11.19
2022-09-15T04:52:27.236Z,11.24
2022-09-15T04:54:56.083Z,11.21
2022-09-15T04:57:24.476Z,11.19
2022-09-15T04:59:53.013Z,11.20
2022-09-15T05:02:22.781Z,11.26
2022-09-15T05:04:52.160Z,11.06
2022-09-15T05:15:50.954Z,10.99
2022-09-15T05:24:52.839Z,11.01
2022-09-15T05:33:54.223Z,11.18
2022-09-15T05:36:38.801Z,11.10
2022-09-15T05:46:07.626Z,11.25
2022-09-15T05:48:46.396Z,11.32
2022-09-15T05:54:08.615Z,11.23
2022-09-15T05:56:49.075Z,11.31
2022-09-15T05:59:19.037Z,11.32
2022-09-15T06:01:55.182Z,11.35
2022-09-15T06:04:26.381Z,11.22
2022-09-15T06:06:56.639Z,11.32
2022-09-15T06:09:25.506Z,11.40
2022-09-15T06:11:53.733Z,11.32
2022-09-15T06:14:22.211Z,11.19
2022-09-15T06:16:54.420Z,11.28
2022-09-15T06:19:25.821Z,11.33
2022-09-15T06:21:54.830Z,11.32
2022-09-15T06:30:23.176Z,11.26
2022-09-15T06:33:09.121Z,11.38
2022-09-15T06:35:39.236Z,11.41
2022-09-15T06:38:08.336Z,11.43
2022-09-15T06:40:36.501Z,11.57
2022-09-15T06:43:05.109Z,11.59
2022-09-15T06:45:33.248Z,11.49
2022-09-15T06:48:23.463Z,11.49
2022-09-15T06:50:56.672Z,11.61
2022-09-15T06:53:25.456Z,11.50
2022-09-15T06:55:53.755Z,11.50
2022-09-15T06:58:22.465Z,11.59
2022-09-15T07:00:50.886Z,11.58
2022-09-15T07:03:20.550Z,11.63
2022-09-15T07:05:48.952Z,11.74
2022-09-15T07:08:17.475Z,11.78
2022-09-15T07:10:46.765Z,11.78
2022-09-15T07:13:14.797Z,11.79
2022-09-15T07:15:43.918Z,11.75
2022-09-15T07:18:15.420Z,11.76
2022-09-15T07:20:44.914Z,11.79
2022-09-15T07:23:12.949Z,11.92
2022-09-15T07:25:45.234Z,11.84
2022-09-15T07:28:13.597Z,11.98
2022-09-15T07:30:41.864Z,11.94
2022-09-15T07:33:10.565Z,11.96
2022-09-15T07:35:42.403Z,11.89
2022-09-15T07:38:12.325Z,12.04
2022-09-15T07:40:40.576Z,12.09
2022-09-15T07:43:08.629Z,12.23
2022-09-15T07:45:36.627Z,12.06
2022-09-15T07:48:04.909Z,12.16
2022-09-15T07:50:33.128Z,12.27
2022-09-15T07:53:01.250Z,12.17
2022-09-15T07:55:31.475Z,12.25
2022-09-15T07:57:59.865Z,12.25
2022-09-15T08:00:28.183Z,12.16
2022-09-15T08:02:56.473Z,12.10
2022-09-15T08:05:27.330Z,12.15
2022-09-15T08:07:55.416Z,12.27
2022-09-15T08:10:23.883Z,12.32
2022-09-15T08:12:53.652Z,12.27
2022-09-15T08:15:21.950Z,12.24
2022-09-15T08:17:50.027Z,12.21
2022-09-15T08:20:18.535Z,12.36
2022-09-15T08:22:48.188Z,12.23
2022-09-15T08:25:16.276Z,12.35
2022-09-15T08:27:44.277Z,12.42
2022-09-15T08:30:14.741Z,12.50
2022-09-15T08:32:42.946Z,12.54
2022-09-15T08:35:11.093Z,12.60
2022-09-15T08:37:40.164Z,12.65
2022-09-15T08:40:09.435Z,12.69
2022-09-15T08:42:44.845Z,12.33
2022-09-15T08:45:19.910Z,12.25
2022-09-15T08:47:49.451Z,12.17
2022-09-15T08:50:24.098Z,12.33
2022-09-15T08:52:55.835Z,12.25
2022-09-15T08:55:35.620Z,12.23
2022-09-15T08:58:04.042Z,12.29
2022-09-15T09:00:34.032Z,12.28
2022-09-15T09:03:14.100Z,12.47
2022-09-15T09:05:47.465Z,12.67
2022-09-15T09:08:27.010Z,12.78
2022-09-15T09:10:56.706Z,12.75
2022-09-15T09:13:34.692Z,12.72
2022-09-15T09:16:09.954Z,12.77
2022-09-15T09:18:50.463Z,12.78
2022-09-15T09:21:23.792Z,12.83
2022-09-15T09:23:56.352Z,12.74
2022-09-15T09:26:24.336Z,12.66
2022-09-15T09:28:56.829Z,12.58
2022-09-15T09:31:27.072Z,12.57
2022-09-15T09:33:58.114Z,12.64
2022-09-15T09:36:27.334Z,12.72
2022-09-15T09:38:57.253Z,12.77
2022-09-15T09:41:35.826Z,12.94
2022-09-15T09:44:05.493Z,12.97
2022-09-15T09:46:35.289Z,13.04
2022-09-15T09:49:05.623Z,13.04
2022-09-15T09:51:35.497Z,13.23
2022-09-15T09:54:09.357Z,13.46
2022-09-15T09:56:37.609Z,13.46
2022-09-15T09:59:05.888Z,13.43
2022-09-15T10:01:35.583Z,13.37
2022-09-15T10:04:14.632Z,13.29
2022-09-15T10:06:43.109Z,13.38
2022-09-15T10:09:14.813Z,13.51
2022-09-15T10:11:45.153Z,13.54
2022-09-15T10:14:24.193Z,13.76
2022-09-15T10:17:03.357Z,13.74
2022-09-15T10:19:33.110Z,13.79
2022-09-15T10:22:07.791Z,13.78
2022-09-15T10:24:36.674Z,13.64
2022-09-15T10:27:18.884Z,13.64
2022-09-15T10:29:47.514Z,13.46
2022-09-15T10:32:27.681Z,13.31
2022-09-15T10:35:00.437Z,13.23
2022-09-15T10:37:31.119Z,13.21
2022-09-15T10:40:00.379Z,13.12
2022-09-15T10:42:51.199Z,13.23
2022-09-15T10:48:21.523Z,13.27
2022-09-15T10:50:55.633Z,13.53
2022-09-15T10:53:28.297Z,13.54
2022-09-15T10:56:00.903Z,13.57
2022-09-15T10:58:34.050Z,13.55
2022-09-15T11:01:05.059Z,13.41
2022-09-15T11:03:54.126Z,13.22
2022-09-15T11:06:30.048Z,12.98
2022-09-15T11:09:07.060Z,13.09
2022-09-15T11:11:41.861Z,13.01
2022-09-15T11:14:19.777Z,13.00
2022-09-15T11:16:55.617Z,13.01
2022-09-15T11:19:32.675Z,13.08
2022-09-15T11:22:04.796Z,13.04
2022-09-15T11:24:41.797Z,13.12
2022-09-15T11:27:14.734Z,13.18
2022-09-15T11:29:53.951Z,13.30
2022-09-15T11:32:26.010Z,13.27
2022-09-15T11:34:57.340Z,13.17
2022-09-15T11:37:31.701Z,13.24
2022-09-15T11:40:04.414Z,13.20
2022-09-15T11:42:36.684Z,13.26
2022-09-15T11:45:05.461Z,13.39
2022-09-15T11:47:37.982Z,13.46
2022-09-15T11:50:13.697Z,13.59
2022-09-15T11:55:32.776Z,13.83
2022-09-15T11:58:09.038Z,14.26
2022-09-15T12:00:40.577Z,14.68
2022-09-15T12:03:18.104Z,15.03
2022-09-15T12:05:54.152Z,15.31
2022-09-15T12:08:29.398Z,15.53
2022-09-15T12:11:01.283Z,15.80
2022-09-15T12:13:30.633Z,16.06
2022-09-15T12:15:59.845Z,16.25
2022-09-15T12:18:41.771Z,16.42
2022-09-15T12:21:17.036Z,16.35
2022-09-15T12:23:47.083Z,16.38
2022-09-15T12:26:19.280Z,16.45
2022-09-15T12:28:56.114Z,16.44
2022-09-15T12:31:29.405Z,16.51
2022-09-15T12:33:58.841Z,16.39
2022-09-15T12:36:48.496Z,16.36
2022-09-15T12:39:31.952Z,16.45
2022-09-15T12:42:09.656Z,16.67
2022-09-15T12:44:39.337Z,16.81
2022-09-15T12:47:09.467Z,16.77
2022-09-15T12:49:43.721Z,16.85
2022-09-15T12:52:12.852Z,16.87
2022-09-15T12:54:43.568Z,16.88
2022-09-15T12:57:20.692Z,16.85
2022-09-15T12:59:49.078Z,17.05
2022-09-15T13:02:32.854Z,17.34
2022-09-15T13:05:01.291Z,17.72
2022-09-15T13:07:35.878Z,18.13
2022-09-15T13:10:27.269Z,18.54
2022-09-15T13:13:05.698Z,18.58
2022-09-15T13:15:35.256Z,18.72
2022-09-15T13:18:07.232Z,18.71
2022-09-15T13:20:38.235Z,18.54
2022-09-15T13:23:10.009Z,18.55
2022-09-15T13:25:42.373Z,18.31
2022-09-15T13:28:13.180Z,17.94
2022-09-15T13:30:46.282Z,17.62
2022-09-15T13:33:25.252Z,17.17
2022-09-15T13:36:00.478Z,16.85
2022-09-15T13:38:41.069Z,16.58
2022-09-15T13:41:40.367Z,16.32
2022-09-15T13:44:29.232Z,16.09
2022-09-15T13:47:16.673Z,15.95
2022-09-15T13:49:48.637Z,15.91
2022-09-15T13:52:25.673Z,15.96
2022-09-15T13:55:19.718Z,16.02
2022-09-15T14:00:45.629Z,17.61
2022-09-15T14:03:18.451Z,18.50
2022-09-15T14:05:47.027Z,18.92
2022-09-15T14:08:17.273Z,18.87
2022-09-15T14:10:48.113Z,18.70
2022-09-15T14:13:17.637Z,18.48
2022-09-15T14:15:59.219Z,18.26
2022-09-15T14:18:29.215Z,18.19
2022-09-15T14:21:02.566Z,18.01
2022-09-15T14:23:30.902Z,17.64
2022-09-15T14:26:00.585Z,17.52
2022-09-15T14:28:31.628Z,17.44
2022-09-15T14:31:01.344Z,17.53
2022-09-15T14:33:37.977Z,18.39
2022-09-15T14:36:16.442Z,20.38
2022-09-15T14:38:44.746Z,22.05
2022-09-15T14:41:20.072Z,22.53
2022-09-15T14:43:48.793Z,23.23
2022-09-15T14:46:19.393Z,23.60
2022-09-15T14:48:49.526Z,23.68
2022-09-15T14:51:21.242Z,23.32
2022-09-15T14:53:51.255Z,22.98
2022-09-15T14:56:20.712Z,22.90
2022-09-15T14:58:52.681Z,22.92
2022-09-15T15:01:24.694Z,22.69
2022-09-15T15:03:58.117Z,22.82
2022-09-15T15:06:30.838Z,22.55
2022-09-15T15:09:03.142Z,21.27
2022-09-15T15:11:32.913Z,20.89
2022-09-15T15:14:01.723Z,20.85
2022-09-15T15:16:31.515Z,20.83
2022-09-15T15:19:01.914Z,20.42
2022-09-15T15:21:48.937Z,20.53
2022-09-15T15:24:19.011Z,20.33
2022-09-15T15:26:47.841Z,19.73
2022-09-15T15:29:35.143Z,18.89
2022-09-15T15:32:05.710Z,18.22
2022-09-15T15:34:35.586Z,17.76
2022-09-15T15:37:05.056Z,17.22
2022-09-15T15:39:33.438Z,16.59
2022-09-15T15:42:03.574Z,15.98
2022-09-15T15:44:32.961Z,15.53
2022-09-15T15:47:02.950Z,15.14
2022-09-15T15:49:32.757Z,14.76
2022-09-15T15:52:02.931Z,14.29
2022-09-15T15:54:31.475Z,14.03
2022-09-15T15:57:05.971Z,13.81
2022-09-15T15:59:33.964Z,13.63
2022-09-15T16:02:02.466Z,13.46
2022-09-15T16:04:30.596Z,13.32
2022-09-15T16:06:59.072Z,13.13
2022-09-15T16:09:29.432Z,13.06
2022-09-15T16:14:30.718Z,12.81
2022-09-15T16:16:59.216Z,12.69
2022-09-15T16:19:27.710Z,12.59
2022-09-15T16:21:56.427Z,12.54
2022-09-15T16:24:25.080Z,12.44
2022-09-15T16:26:54.793Z,12.39
2022-09-15T16:29:28.013Z,12.32
2022-09-15T16:31:57.190Z,12.34
2022-09-15T16:34:25.388Z,12.35
2022-09-15T16:36:53.746Z,12.36
2022-09-15T16:39:22.167Z,12.31
2022-09-15T16:41:50.528Z,12.20
2022-09-15T16:44:22.106Z,12.15
2022-09-15T16:46:51.260Z,12.11
2022-09-15T16:49:19.465Z,12.05
2022-09-15T16:51:47.760Z,11.99
2022-09-15T16:54:18.072Z,11.91
2022-09-15T16:56:46.865Z,11.84
2022-09-15T16:59:15.425Z,11.82
2022-09-15T17:01:45.392Z,11.83
2022-09-15T17:04:17.695Z,11.86
2022-09-15T17:06:46.075Z,11.94
2022-09-15T17:09:15.908Z,12.03
2022-09-15T17:11:44.616Z,12.13
2022-09-15T17:14:18.725Z,12.23
2022-09-15T17:16:52.908Z,12.28
2022-09-15T17:19:21.240Z,12.24
2022-09-15T17:21:50.364Z,12.16
2022-09-15T17:24:18.648Z,12.06
2022-09-15T17:26:46.935Z,11.92
2022-09-15T17:29:15.063Z,11.80
2022-09-15T17:31:43.747Z,11.70
2022-09-15T17:34:21.029Z,11.66
2022-09-15T17:37:02.674Z,11.60
2022-09-15T17:39:47.907Z,11.50
2022-09-15T17:42:34.765Z,11.43
2022-09-15T17:45:07.027Z,11.35
2022-09-15T17:47:38.427Z,11.30
2022-09-15T17:50:08.474Z,11.24
2022-09-15T17:52:38.873Z,11.21
2022-09-15T17:55:12.900Z,11.16
2022-09-15T17:57:41.170Z,11.12
2022-09-15T18:00:10.608Z,11.09
2022-09-15T18:02:39.391Z,11.08
2022-09-15T18:05:17.428Z,11.06
2022-09-15T18:07:46.990Z,11.01
2022-09-15T18:10:15.570Z,10.97
2022-09-15T18:12:46.889Z,10.92
2022-09-15T18:15:19.016Z,10.91
2022-09-15T18:17:48.940Z,10.93
2022-09-15T18:20:20.139Z,10.93
2022-09-15T18:22:49.150Z,10.89
2022-09-15T18:25:19.045Z,10.91
2022-09-15T18:27:49.484Z,10.92
2022-09-15T18:30:18.223Z,10.90
2022-09-15T18:32:46.364Z,10.84
2022-09-15T18:35:18.376Z,10.79
2022-09-15T18:37:49.267Z,10.74
2022-09-15T18:40:18.338Z,10.71
2022-09-15T18:42:47.237Z,10.67
2022-09-15T18:45:16.456Z,10.61
2022-09-15T18:47:44.695Z,10.62
2022-09-15T18:50:13.629Z,10.61
2022-09-15T18:52:42.311Z,10.55
2022-09-15T18:55:15.632Z,10.55
2022-09-15T18:57:45.069Z,10.53
2022-09-15T19:00:14.750Z,10.55
2022-09-15T19:02:53.366Z,10.53
2022-09-15T19:05:21.751Z,10.51
2022-09-15T19:07:50.144Z,10.55
2022-09-15T19:10:19.968Z,10.55
2022-09-15T19:12:48.797Z,10.51
2022-09-15T19:15:17.143Z,10.47
2022-09-15T19:17:45.738Z,10.45
2022-09-15T19:20:15.142Z,10.42
2022-09-15T19:22:43.631Z,10.42
2022-09-15T19:25:12.590Z,10.41
2022-09-15T19:27:43.216Z,10.44
2022-09-15T19:30:12.170Z,10.44
2022-09-15T19:32:40.962Z,10.42
2022-09-15T19:35:09.780Z,10.42
2022-09-15T19:37:39.314Z,10.44
2022-09-15T19:40:10.166Z,10.44
2022-09-15T19:42:38.801Z,10.42
2022-09-15T19:45:10.660Z,10.42
2022-09-15T19:47:38.844Z,10.42
2022-09-15T19:50:08.128Z,10.41
2022-09-15T19:52:36.525Z,10.42
2022-09-15T19:55:05.377Z,10.42
2022-09-15T19:57:33.563Z,10.45
2022-09-15T20:00:02.148Z,10.44
2022-09-15T20:02:33.407Z,10.46
2022-09-15T20:05:01.978Z,10.47
2022-09-15T20:07:32.328Z,10.47
2022-09-15T20:10:03.143Z,10.48
2022-09-15T20:12:32.138Z,10.53
2022-09-15T20:15:00.398Z,10.59
2022-09-15T20:17:28.661Z,10.69
2022-09-15T20:19:58.686Z,10.78
2022-09-15T20:22:29.149Z,10.84
2022-09-15T20:24:57.601Z,10.91
2022-09-15T20:27:25.915Z,11.00
2022-09-15T20:29:54.090Z,11.09
2022-09-15T20:32:29.572Z,11.21
2022-09-15T20:35:06.066Z,11.27
2022-09-15T20:58:29.861Z,10.87
2022-09-15T21:01:11.857Z,10.82
2022-09-15T21:09:27.299Z,10.73
2022-09-15T21:12:01.450Z,10.71
2022-09-15T21:21:02.317Z,10.65
2022-09-15T21:23:37.480Z,10.64
2022-09-15T21:40:59.065Z,10.50
2022-09-15T21:43:36.461Z,10.47
2022-09-15T21:46:21.481Z,10.44
2022-09-15T22:25:06.380Z,10.23
2022-09-15T22:33:51.073Z,10.14
2022-09-15T22:36:29.750Z,10.13
2022-09-15T22:39:12.266Z,10.10
2022-09-15T22:48:24.654Z,10.01
2022-09-15T22:56:47.422Z,9.99
2022-09-15T22:59:17.254Z,10.00
2022-09-15T23:01:46.328Z,10.00
2022-09-15T23:04:16.503Z,9.99
2022-09-15T23:06:45.774Z,9.97
2022-09-15T23:09:16.346Z,9.96
2022-09-15T23:11:55.440Z,9.94
2022-09-15T23:14:29.689Z,9.92
2022-09-15T23:17:09.236Z,9.91
2022-09-15T23:19:45.355Z,9.90
2022-09-15T23:22:15.809Z,9.91
2022-09-15T23:24:49.017Z,9.92
2022-09-15T23:27:22.909Z,9.94
2022-09-15T23:29:57.721Z,9.95
2022-09-15T23:32:44.631Z,9.93
2022-09-15T23:38:14.161Z,9.93
2022-09-15T23:40:46.702Z,9.97
2022-09-15T23:55:57.727Z,10.34
2022-09-15T23:58:52.037Z,10.57
